sensor_id;sensor_type;location;lat;lon;timestamp;P1;durP1;ratioP1;P2;durP2;ratioP2
1258;SDS011;619;51.472;6.628;2023-03-14T00:00:51;4.37;;;1.80;;
1258;SDS011;619;51.472;6.628;2023-03-14T00:03:19;3.90;;;1.83;;
1258;SDS011;619;51.472;6.628;2023-03-14T00:05:44;5.50;;;2.20;;
1258;SDS011;619;51.472;6.628;2023-03-14T00:08:12;3.77;;;1.30;;
1258;SDS011;619;51.472;6.628;2023-03-14T00:10:44;5.43;;;2.20;;
1258;SDS011;619;51.472;6.628;2023-03-14T00:13:10;2.50;;;1.73;;
1258;SDS011;619;51.472;6.628;2023-03-14T00:15:37;4.43;;;2.17;;
1258;SDS011;619;51.472;6.628;2023-03-14T00:18:03;5.70;;;2.43;;
1258;SDS011;619;51.472;6.628;2023-03-14T00:20:31;4.47;;;1.80;;
1258;SDS011;619;51.472;6.628;2023-03-14T00:22:57;5.60;;;2.47;;
1258;SDS011;619;51.472;6.628;2023-03-14T00:25:22;4.90;;;2.10;;
1258;SDS011;619;51.472;6.628;2023-03-14T00:27:50;3.60;;;1.83;;
1258;SDS011;619;51.472;6.628;2023-03-14T00:30:17;6.20;;;2.23;;
1258;SDS011;619;51.472;6.628;2023-03-14T00:32:42;3.83;;;2.30;;
1258;SDS011;619;51.472;6.628;2023-03-14T00:35:08;4.27;;;2.17;;
1258;SDS011;619;51.472;6.628;2023-03-14T00:37:36;6.00;;;2.30;;
1258;SDS011;619;51.472;6.628;2023-03-14T00:40:02;5.47;;;2.30;;
1258;SDS011;619;51.472;6.628;2023-03-14T00:42:30;6.30;;;2.93;;
1258;SDS011;619;51.472;6.628;2023-03-14T00:44:56;4.03;;;2.40;;
1258;SDS011;619;51.472;6.628;2023-03-14T00:47:22;5.47;;;1.70;;
1258;SDS011;619;51.472;6.628;2023-03-14T00:49:50;4.20;;;1.20;;
1258;SDS011;619;51.472;6.628;2023-03-14T00:52:18;5.10;;;1.70;;
1258;SDS011;619;51.472;6.628;2023-03-14T00:54:44;1.87;;;1.27;;
1258;SDS011;619;51.472;6.628;2023-03-14T00:57:09;2.73;;;1.40;;
1258;SDS011;619;51.472;6.628;2023-03-14T00:59:35;3.13;;;1.63;;
1258;SDS011;619;51.472;6.628;2023-03-14T01:02:00;3.00;;;1.40;;
1258;SDS011;619;51.472;6.628;2023-03-14T01:04:26;4.53;;;1.90;;
1258;SDS011;619;51.472;6.628;2023-03-14T01:06:51;6.50;;;2.23;;
1258;SDS011;619;51.472;6.628;2023-03-14T01:09:17;3.80;;;1.30;;
1258;SDS011;619;51.472;6.628;2023-03-14T01:11:45;2.97;;;1.50;;
1258;SDS011;619;51.472;6.628;2023-03-14T01:14:11;3.17;;;1.40;;
1258;SDS011;619;51.472;6.628;2023-03-14T01:16:38;9.20;;;2.00;;
1258;SDS011;619;51.472;6.628;2023-03-14T01:19:03;4.50;;;1.90;;
1258;SDS011;619;51.472;6.628;2023-03-14T01:21:31;7.70;;;1.67;;
1258;SDS011;619;51.472;6.628;2023-03-14T01:23:58;8.17;;;1.87;;
1258;SDS011;619;51.472;6.628;2023-03-14T01:26:26;4.93;;;1.73;;
1258;SDS011;619;51.472;6.628;2023-03-14T01:28:54;4.70;;;1.70;;
1258;SDS011;619;51.472;6.628;2023-03-14T01:31:23;3.70;;;1.70;;
1258;SDS011;619;51.472;6.628;2023-03-14T01:33:50;8.47;;;1.70;;
1258;SDS011;619;51.472;6.628;2023-03-14T01:36:18;3.20;;;1.57;;
1258;SDS011;619;51.472;6.628;2023-03-14T01:38:44;6.90;;;2.17;;
1258;SDS011;619;51.472;6.628;2023-03-14T01:41:12;3.87;;;1.40;;
1258;SDS011;619;51.472;6.628;2023-03-14T01:43:41;4.57;;;1.47;;
1258;SDS011;619;51.472;6.628;2023-03-14T01:54:13;3.50;;;1.40;;
1258;SDS011;619;51.472;6.628;2023-03-14T01:56:53;3.17;;;1.20;;
1258;SDS011;619;51.472;6.628;2023-03-14T01:59:28;6.33;;;1.30;;
1258;SDS011;619;51.472;6.628;2023-03-14T02:01:58;3.50;;;1.30;;
1258;SDS011;619;51.472;6.628;2023-03-14T02:04:25;2.53;;;1.00;;
1258;SDS011;619;51.472;6.628;2023-03-14T02:07:03;2.90;;;1.20;;
1258;SDS011;619;51.472;6.628;2023-03-14T02:09:54;4.03;;;1.57;;
1258;SDS011;619;51.472;6.628;2023-03-14T02:12:21;2.83;;;1.13;;
1258;SDS011;619;51.472;6.628;2023-03-14T02:14:49;2.60;;;1.00;;
1258;SDS011;619;51.472;6.628;2023-03-14T02:17:16;5.30;;;1.10;;
1258;SDS011;619;51.472;6.628;2023-03-14T02:19:53;2.60;;;1.20;;
1258;SDS011;619;51.472;6.628;2023-03-14T02:22:33;5.30;;;1.50;;
1258;SDS011;619;51.472;6.628;2023-03-14T02:28:03;6.70;;;1.60;;
1258;SDS011;619;51.472;6.628;2023-03-14T02:30:29;5.60;;;1.30;;
1258;SDS011;619;51.472;6.628;2023-03-14T02:33:03;4.30;;;1.37;;
1258;SDS011;619;51.472;6.628;2023-03-14T02:35:41;4.30;;;1.37;;
1258;SDS011;619;51.472;6.628;2023-03-14T02:38:25;8.13;;;2.73;;
1258;SDS011;619;51.472;6.628;2023-03-14T02:41:04;5.43;;;1.63;;
1258;SDS011;619;51.472;6.628;2023-03-14T02:43:30;11.50;;;1.93;;
1258;SDS011;619;51.472;6.628;2023-03-14T02:45:55;4.50;;;1.50;;
1258;SDS011;619;51.472;6.628;2023-03-14T02:48:27;4.80;;;1.77;;
1258;SDS011;619;51.472;6.628;2023-03-14T02:51:01;5.60;;;1.60;;
1258;SDS011;619;51.472;6.628;2023-03-14T02:53:31;3.57;;;1.63;;
1258;SDS011;619;51.472;6.628;2023-03-14T02:55:58;4.63;;;1.50;;
1258;SDS011;619;51.472;6.628;2023-03-14T02:58:25;5.87;;;1.30;;
1258;SDS011;619;51.472;6.628;2023-03-14T03:00:51;4.07;;;1.30;;
1258;SDS011;619;51.472;6.628;2023-03-14T03:03:19;2.90;;;1.30;;
1258;SDS011;619;51.472;6.628;2023-03-14T03:05:54;3.87;;;1.47;;
1258;SDS011;619;51.472;6.628;2023-03-14T03:08:21;7.77;;;1.57;;
1258;SDS011;619;51.472;6.628;2023-03-14T03:10:49;4.90;;;1.63;;
1258;SDS011;619;51.472;6.628;2023-03-14T03:13:15;5.03;;;1.40;;
1258;SDS011;619;51.472;6.628;2023-03-14T03:15:43;5.23;;;2.20;;
1258;SDS011;619;51.472;6.628;2023-03-14T03:18:09;9.80;;;2.00;;
1258;SDS011;619;51.472;6.628;2023-03-14T03:20:36;4.40;;;1.60;;
1258;SDS011;619;51.472;6.628;2023-03-14T03:23:02;3.27;;;1.70;;
1258;SDS011;619;51.472;6.628;2023-03-14T03:25:30;4.40;;;1.97;;
1258;SDS011;619;51.472;6.628;2023-03-14T03:27:55;6.47;;;2.27;;
1258;SDS011;619;51.472;6.628;2023-03-14T03:30:26;5.30;;;2.50;;
1258;SDS011;619;51.472;6.628;2023-03-14T03:32:51;6.07;;;1.60;;
1258;SDS011;619;51.472;6.628;2023-03-14T03:35:17;6.90;;;1.50;;
1258;SDS011;619;51.472;6.628;2023-03-14T03:37:45;5.27;;;1.60;;
1258;SDS011;619;51.472;6.628;2023-03-14T03:40:10;7.30;;;2.00;;
1258;SDS011;619;51.472;6.628;2023-03-14T03:42:36;3.37;;;1.40;;
1258;SDS011;619;51.472;6.628;2023-03-14T03:45:02;6.70;;;1.73;;
1258;SDS011;619;51.472;6.628;2023-03-14T03:47:29;3.13;;;1.10;;
1258;SDS011;619;51.472;6.628;2023-03-14T03:49:55;6.53;;;1.73;;
1258;SDS011;619;51.472;6.628;2023-03-14T03:52:23;9.87;;;1.60;;
1258;SDS011;619;51.472;6.628;2023-03-14T03:54:49;3.07;;;1.20;;
1258;SDS011;619;51.472;6.628;2023-03-14T03:57:14;5.50;;;1.70;;
1258;SDS011;619;51.472;6.628;2023-03-14T03:59:40;4.20;;;1.63;;
1258;SDS011;619;51.472;6.628;2023-03-14T04:02:06;4.03;;;1.53;;
1258;SDS011;619;51.472;6.628;2023-03-14T04:04:32;8.02;;;1.55;;
1258;SDS011;619;51.472;6.628;2023-03-14T04:07:00;4.73;;;2.13;;
1258;SDS011;619;51.472;6.628;2023-03-14T04:09:25;7.03;;;2.10;;
1258;SDS011;619;51.472;6.628;2023-03-14T04:11:51;4.50;;;1.70;;
1258;SDS011;619;51.472;6.628;2023-03-14T04:14:16;7.33;;;1.67;;
1258;SDS011;619;51.472;6.628;2023-03-14T04:16:42;5.40;;;1.73;;
1258;SDS011;619;51.472;6.628;2023-03-14T04:19:10;4.90;;;1.40;;
1258;SDS011;619;51.472;6.628;2023-03-14T04:21:38;4.30;;;1.67;;
1258;SDS011;619;51.472;6.628;2023-03-14T04:24:09;6.77;;;1.60;;
1258;SDS011;619;51.472;6.628;2023-03-14T04:26:38;4.17;;;1.30;;
1258;SDS011;619;51.472;6.628;2023-03-14T04:29:04;4.70;;;1.60;;
1258;SDS011;619;51.472;6.628;2023-03-14T04:31:32;4.70;;;1.20;;
1258;SDS011;619;51.472;6.628;2023-03-14T04:33:59;3.00;;;1.30;;
1258;SDS011;619;51.472;6.628;2023-03-14T04:36:25;2.40;;;0.93;;
1258;SDS011;619;51.472;6.628;2023-03-14T04:38:51;4.37;;;1.63;;
1258;SDS011;619;51.472;6.628;2023-03-14T04:41:18;5.23;;;1.50;;
1258;SDS011;619;51.472;6.628;2023-03-14T04:43:44;3.20;;;1.10;;
1258;SDS011;619;51.472;6.628;2023-03-14T04:46:12;1.90;;;1.00;;
1258;SDS011;619;51.472;6.628;2023-03-14T04:48:39;1.90;;;0.93;;
1258;SDS011;619;51.472;6.628;2023-03-14T04:51:07;2.97;;;1.13;;
1258;SDS011;619;51.472;6.628;2023-03-14T04:53:33;3.40;;;1.20;;
1258;SDS011;619;51.472;6.628;2023-03-14T04:56:00;4.00;;;0.97;;
1258;SDS011;619;51.472;6.628;2023-03-14T04:58:28;6.00;;;2.03;;
1258;SDS011;619;51.472;6.628;2023-03-14T05:00:54;2.10;;;0.87;;
1258;SDS011;619;51.472;6.628;2023-03-14T05:03:26;1.60;;;0.80;;
1258;SDS011;619;51.472;6.628;2023-03-14T05:05:54;3.50;;;0.90;;
1258;SDS011;619;51.472;6.628;2023-03-14T05:08:22;1.83;;;0.90;;
1258;SDS011;619;51.472;6.628;2023-03-14T05:10:51;3.13;;;0.83;;
1258;SDS011;619;51.472;6.628;2023-03-14T05:13:21;4.10;;;0.80;;
1258;SDS011;619;51.472;6.628;2023-03-14T05:15:49;4.97;;;1.07;;
1258;SDS011;619;51.472;6.628;2023-03-14T05:18:20;2.83;;;0.80;;
1258;SDS011;619;51.472;6.628;2023-03-14T05:20:45;3.17;;;1.03;;
1258;SDS011;619;51.472;6.628;2023-03-14T05:23:17;5.40;;;1.20;;
1258;SDS011;619;51.472;6.628;2023-03-14T05:25:43;2.90;;;0.90;;
1258;SDS011;619;51.472;6.628;2023-03-14T05:28:09;2.23;;;1.07;;
1258;SDS011;619;51.472;6.628;2023-03-14T05:30:37;1.43;;;0.90;;
1258;SDS011;619;51.472;6.628;2023-03-14T05:33:02;1.60;;;0.80;;
1258;SDS011;619;51.472;6.628;2023-03-14T05:35:28;2.33;;;0.63;;
1258;SDS011;619;51.472;6.628;2023-03-14T05:37:58;1.70;;;0.90;;
1258;SDS011;619;51.472;6.628;2023-03-14T05:40:26;3.77;;;1.40;;
1258;SDS011;619;51.472;6.628;2023-03-14T05:42:54;2.73;;;1.43;;
1258;SDS011;619;51.472;6.628;2023-03-14T05:45:20;1.37;;;0.83;;
1258;SDS011;619;51.472;6.628;2023-03-14T05:47:48;3.37;;;1.30;;
1258;SDS011;619;51.472;6.628;2023-03-14T05:50:14;2.97;;;0.80;;
1258;SDS011;619;51.472;6.628;2023-03-14T05:52:42;2.83;;;1.10;;
1258;SDS011;619;51.472;6.628;2023-03-14T05:55:08;1.93;;;0.90;;
1258;SDS011;619;51.472;6.628;2023-03-14T05:57:34;2.60;;;1.00;;
1258;SDS011;619;51.472;6.628;2023-03-14T05:59:59;1.43;;;0.73;;
1258;SDS011;619;51.472;6.628;2023-03-14T06:02:25;2.13;;;1.27;;
1258;SDS011;619;51.472;6.628;2023-03-14T06:04:50;1.23;;;0.80;;
1258;SDS011;619;51.472;6.628;2023-03-14T06:07:18;2.33;;;1.10;;
1258;SDS011;619;51.472;6.628;2023-03-14T06:09:46;1.70;;;0.97;;
1258;SDS011;619;51.472;6.628;2023-03-14T06:12:14;2.63;;;1.30;;
1258;SDS011;619;51.472;6.628;2023-03-14T06:14:44;2.80;;;1.23;;
1258;SDS011;619;51.472;6.628;2023-03-14T06:17:10;2.40;;;1.00;;
1258;SDS011;619;51.472;6.628;2023-03-14T06:19:36;2.90;;;1.10;;
1258;SDS011;619;51.472;6.628;2023-03-14T06:22:03;1.83;;;1.23;;
1258;SDS011;619;51.472;6.628;2023-03-14T06:24:29;2.50;;;1.50;;
1258;SDS011;619;51.472;6.628;2023-03-14T06:26:57;3.07;;;1.73;;
1258;SDS011;619;51.472;6.628;2023-03-14T06:29:27;2.13;;;1.30;;
1258;SDS011;619;51.472;6.628;2023-03-14T06:31:52;1.90;;;1.10;;
1258;SDS011;619;51.472;6.628;2023-03-14T06:34:18;1.30;;;0.90;;
1258;SDS011;619;51.472;6.628;2023-03-14T06:36:44;3.40;;;1.00;;
1258;SDS011;619;51.472;6.628;2023-03-14T06:39:09;2.17;;;1.20;;
1258;SDS011;619;51.472;6.628;2023-03-14T06:41:35;2.63;;;1.00;;
1258;SDS011;619;51.472;6.628;2023-03-14T06:44:00;1.50;;;0.80;;
1258;SDS011;619;51.472;6.628;2023-03-14T06:46:26;2.20;;;1.40;;
1258;SDS011;619;51.472;6.628;2023-03-14T06:48:51;2.87;;;1.43;;
1258;SDS011;619;51.472;6.628;2023-03-14T06:51:18;1.50;;;0.90;;
1258;SDS011;619;51.472;6.628;2023-03-14T06:53:46;2.57;;;1.23;;
1258;SDS011;619;51.472;6.628;2023-03-14T06:56:11;2.10;;;1.03;;
1258;SDS011;619;51.472;6.628;2023-03-14T06:58:37;1.03;;;0.70;;
1258;SDS011;619;51.472;6.628;2023-03-14T07:01:03;1.97;;;1.20;;
1258;SDS011;619;51.472;6.628;2023-03-14T07:03:28;7.00;;;1.20;;
1258;SDS011;619;51.472;6.628;2023-03-14T07:05:54;3.07;;;0.80;;
1258;SDS011;619;51.472;6.628;2023-03-14T07:08:22;2.17;;;0.90;;
1258;SDS011;619;51.472;6.628;2023-03-14T07:10:50;2.23;;;1.00;;
1258;SDS011;619;51.472;6.628;2023-03-14T07:13:23;1.63;;;0.93;;
1258;SDS011;619;51.472;6.628;2023-03-14T07:15:51;1.70;;;0.93;;
1258;SDS011;619;51.472;6.628;2023-03-14T07:18:19;2.57;;;0.97;;
1258;SDS011;619;51.472;6.628;2023-03-14T07:20:45;1.10;;;1.00;;
1258;SDS011;619;51.472;6.628;2023-03-14T07:23:13;1.40;;;0.87;;
1258;SDS011;619;51.472;6.628;2023-03-14T07:25:39;2.60;;;1.17;;
1258;SDS011;619;51.472;6.628;2023-03-14T07:28:04;1.83;;;0.90;;
1258;SDS011;619;51.472;6.628;2023-03-14T07:30:32;1.43;;;0.90;;
1258;SDS011;619;51.472;6.628;2023-03-14T07:32:58;2.53;;;1.20;;
1258;SDS011;619;51.472;6.628;2023-03-14T07:35:23;1.43;;;1.00;;
1258;SDS011;619;51.472;6.628;2023-03-14T07:37:51;1.87;;;0.87;;
1258;SDS011;619;51.472;6.628;2023-03-14T07:40:17;1.67;;;1.13;;
1258;SDS011;619;51.472;6.628;2023-03-14T07:42:44;1.07;;;0.73;;
1258;SDS011;619;51.472;6.628;2023-03-14T07:45:10;1.40;;;0.90;;
1258;SDS011;619;51.472;6.628;2023-03-14T07:47:38;1.20;;;0.80;;
1258;SDS011;619;51.472;6.628;2023-03-14T07:50:06;1.10;;;0.90;;
1258;SDS011;619;51.472;6.628;2023-03-14T07:52:35;1.60;;;1.30;;
1258;SDS011;619;51.472;6.628;2023-03-14T07:55:00;1.57;;;1.07;;
1258;SDS011;619;51.472;6.628;2023-03-14T07:57:28;1.93;;;1.10;;
1258;SDS011;619;51.472;6.628;2023-03-14T07:59:56;1.57;;;0.97;;
1258;SDS011;619;51.472;6.628;2023-03-14T08:02:22;1.30;;;0.90;;
1258;SDS011;619;51.472;6.628;2023-03-14T08:04:50;1.73;;;1.63;;
1258;SDS011;619;51.472;6.628;2023-03-14T08:07:18;1.13;;;0.90;;
1258;SDS011;619;51.472;6.628;2023-03-14T08:09:46;1.07;;;0.80;;
1258;SDS011;619;51.472;6.628;2023-03-14T08:12:12;1.60;;;1.10;;
1258;SDS011;619;51.472;6.628;2023-03-14T08:14:40;1.30;;;0.90;;
1258;SDS011;619;51.472;6.628;2023-03-14T08:17:06;1.27;;;1.10;;
1258;SDS011;619;51.472;6.628;2023-03-14T08:19:33;1.90;;;0.73;;
1258;SDS011;619;51.472;6.628;2023-03-14T08:21:59;1.27;;;0.90;;
1258;SDS011;619;51.472;6.628;2023-03-14T08:24:28;1.30;;;0.90;;
1258;SDS011;619;51.472;6.628;2023-03-14T08:26:53;1.53;;;1.00;;
1258;SDS011;619;51.472;6.628;2023-03-14T08:29:21;1.40;;;1.13;;
1258;SDS011;619;51.472;6.628;2023-03-14T08:31:47;1.90;;;1.10;;
1258;SDS011;619;51.472;6.628;2023-03-14T08:34:14;1.40;;;1.13;;
1258;SDS011;619;51.472;6.628;2023-03-14T08:36:40;1.70;;;1.30;;
1258;SDS011;619;51.472;6.628;2023-03-14T08:39:09;1.27;;;1.03;;
1258;SDS011;619;51.472;6.628;2023-03-14T08:41:37;1.20;;;0.97;;
1258;SDS011;619;51.472;6.628;2023-03-14T08:44:05;1.20;;;1.03;;
1258;SDS011;619;51.472;6.628;2023-03-14T08:46:32;1.40;;;1.00;;
1258;SDS011;619;51.472;6.628;2023-03-14T08:49:00;1.20;;;0.80;;
1258;SDS011;619;51.472;6.628;2023-03-14T08:51:28;1.30;;;1.07;;
1258;SDS011;619;51.472;6.628;2023-03-14T08:53:56;2.13;;;1.30;;
1258;SDS011;619;51.472;6.628;2023-03-14T08:56:21;1.77;;;1.03;;
1258;SDS011;619;51.472;6.628;2023-03-14T08:58:49;1.73;;;0.70;;
1258;SDS011;619;51.472;6.628;2023-03-14T09:01:15;0.90;;;0.50;;
1258;SDS011;619;51.472;6.628;2023-03-14T09:03:41;0.90;;;0.50;;
1258;SDS011;619;51.472;6.628;2023-03-14T09:06:11;1.10;;;0.50;;
1258;SDS011;619;51.472;6.628;2023-03-14T09:08:38;3.07;;;0.70;;
1258;SDS011;619;51.472;6.628;2023-03-14T09:11:06;1.13;;;0.60;;
1258;SDS011;619;51.472;6.628;2023-03-14T09:13:34;0.90;;;0.57;;
1258;SDS011;619;51.472;6.628;2023-03-14T09:16:03;0.90;;;0.50;;
1258;SDS011;619;51.472;6.628;2023-03-14T09:18:31;2.27;;;1.60;;
1258;SDS011;619;51.472;6.628;2023-03-14T09:20:57;1.10;;;0.60;;
1258;SDS011;619;51.472;6.628;2023-03-14T09:23:23;1.00;;;0.60;;
1258;SDS011;619;51.472;6.628;2023-03-14T09:25:54;1.10;;;0.70;;
1258;SDS011;619;51.472;6.628;2023-03-14T09:28:22;1.03;;;0.63;;
1258;SDS011;619;51.472;6.628;2023-03-14T09:30:48;2.27;;;1.43;;
1258;SDS011;619;51.472;6.628;2023-03-14T09:33:17;1.40;;;0.70;;
1258;SDS011;619;51.472;6.628;2023-03-14T09:35:43;1.73;;;0.90;;
1258;SDS011;619;51.472;6.628;2023-03-14T09:38:12;1.37;;;0.70;;
1258;SDS011;619;51.472;6.628;2023-03-14T09:40:38;2.57;;;1.27;;
1258;SDS011;619;51.472;6.628;2023-03-14T09:43:04;1.80;;;1.30;;
1258;SDS011;619;51.472;6.628;2023-03-14T09:45:36;1.90;;;1.17;;
1258;SDS011;619;51.472;6.628;2023-03-14T09:48:05;2.23;;;1.30;;
1258;SDS011;619;51.472;6.628;2023-03-14T09:50:42;1.53;;;1.40;;
1258;SDS011;619;51.472;6.628;2023-03-14T09:53:13;2.13;;;1.47;;
1258;SDS011;619;51.472;6.628;2023-03-14T09:55:41;4.23;;;2.20;;
1258;SDS011;619;51.472;6.628;2023-03-14T09:58:13;2.83;;;1.53;;
1258;SDS011;619;51.472;6.628;2023-03-14T10:00:39;2.33;;;1.20;;
1258;SDS011;619;51.472;6.628;2023-03-14T10:05:38;2.87;;;1.43;;
1258;SDS011;619;51.472;6.628;2023-03-14T10:08:04;2.27;;;1.27;;
1258;SDS011;619;51.472;6.628;2023-03-14T10:10:30;2.20;;;1.00;;
1258;SDS011;619;51.472;6.628;2023-03-14T10:15:35;2.17;;;1.37;;
1258;SDS011;619;51.472;6.628;2023-03-14T10:18:03;1.83;;;1.27;;
1258;SDS011;619;51.472;6.628;2023-03-14T10:20:36;1.83;;;1.73;;
1258;SDS011;619;51.472;6.628;2023-03-14T10:23:04;3.30;;;1.87;;
1258;SDS011;619;51.472;6.628;2023-03-14T10:25:31;2.13;;;1.43;;
1258;SDS011;619;51.472;6.628;2023-03-14T10:28:01;2.53;;;0.80;;
1258;SDS011;619;51.472;6.628;2023-03-14T10:30:37;2.73;;;0.73;;
1258;SDS011;619;51.472;6.628;2023-03-14T10:33:10;2.03;;;0.80;;
1258;SDS011;619;51.472;6.628;2023-03-14T10:35:36;2.50;;;0.73;;
1258;SDS011;619;51.472;6.628;2023-03-14T10:38:05;1.77;;;0.70;;
1258;SDS011;619;51.472;6.628;2023-03-14T10:40:36;2.00;;;1.03;;
1258;SDS011;619;51.472;6.628;2023-03-14T10:43:03;2.03;;;1.00;;
1258;SDS011;619;51.472;6.628;2023-03-14T10:48:17;6.50;;;1.10;;
1258;SDS011;619;51.472;6.628;2023-03-14T10:50:50;2.30;;;1.00;;
1258;SDS011;619;51.472;6.628;2023-03-14T10:53:21;5.23;;;1.10;;
1258;SDS011;619;51.472;6.628;2023-03-14T10:55:47;2.30;;;0.83;;
1258;SDS011;619;51.472;6.628;2023-03-14T10:58:57;1.67;;;0.70;;
1258;SDS011;619;51.472;6.628;2023-03-14T11:03:45;2.00;;;0.83;;
1258;SDS011;619;51.472;6.628;2023-03-14T11:06:19;2.00;;;0.90;;
1258;SDS011;619;51.472;6.628;2023-03-14T11:09:07;2.60;;;0.83;;
1258;SDS011;619;51.472;6.628;2023-03-14T11:11:38;1.93;;;0.90;;
1258;SDS011;619;51.472;6.628;2023-03-14T11:14:12;1.30;;;0.90;;
1258;SDS011;619;51.472;6.628;2023-03-14T11:22:10;2.60;;;0.90;;
1258;SDS011;619;51.472;6.628;2023-03-14T11:32:56;2.00;;;1.20;;
1258;SDS011;619;51.472;6.628;2023-03-14T11:37:52;1.67;;;1.07;;
1258;SDS011;619;51.472;6.628;2023-03-14T11:40:21;6.20;;;1.10;;
1258;SDS011;619;51.472;6.628;2023-03-14T11:42:49;3.63;;;1.20;;
1258;SDS011;619;51.472;6.628;2023-03-14T11:45:18;6.13;;;1.30;;
1258;SDS011;619;51.472;6.628;2023-03-14T11:47:44;3.93;;;1.20;;
1258;SDS011;619;51.472;6.628;2023-03-14T11:50:21;2.90;;;1.37;;
1258;SDS011;619;51.472;6.628;2023-03-14T11:55:42;5.70;;;1.43;;
1258;SDS011;619;51.472;6.628;2023-03-14T11:58:27;5.43;;;1.57;;
1258;SDS011;619;51.472;6.628;2023-03-14T12:00:57;3.83;;;1.20;;
1258;SDS011;619;51.472;6.628;2023-03-14T12:03:51;4.13;;;1.53;;
1258;SDS011;619;51.472;6.628;2023-03-14T12:09:00;3.97;;;2.57;;
1258;SDS011;619;51.472;6.628;2023-03-14T12:14:00;2.97;;;1.63;;
1258;SDS011;619;51.472;6.628;2023-03-14T12:16:33;7.23;;;2.10;;
1258;SDS011;619;51.472;6.628;2023-03-14T12:21:44;3.43;;;1.50;;
1258;SDS011;619;51.472;6.628;2023-03-14T12:24:19;6.40;;;1.47;;
1258;SDS011;619;51.472;6.628;2023-03-14T12:26:56;6.33;;;1.87;;
1258;SDS011;619;51.472;6.628;2023-03-14T12:29:22;10.10;;;2.37;;
1258;SDS011;619;51.472;6.628;2023-03-14T12:32:06;8.90;;;2.00;;
1258;SDS011;619;51.472;6.628;2023-03-14T12:34:42;11.53;;;2.67;;
1258;SDS011;619;51.472;6.628;2023-03-14T12:49:58;8.17;;;2.13;;
1258;SDS011;619;51.472;6.628;2023-03-14T12:57:47;7.10;;;2.10;;
1258;SDS011;619;51.472;6.628;2023-03-14T13:00:19;11.83;;;3.10;;
1258;SDS011;619;51.472;6.628;2023-03-14T13:02:46;17.50;;;3.33;;
1258;SDS011;619;51.472;6.628;2023-03-14T13:05:20;8.60;;;2.30;;
1258;SDS011;619;51.472;6.628;2023-03-14T13:10:27;6.30;;;2.20;;
1258;SDS011;619;51.472;6.628;2023-03-14T13:13:15;13.70;;;2.43;;
1258;SDS011;619;51.472;6.628;2023-03-14T13:15:43;10.10;;;2.90;;
1258;SDS011;619;51.472;6.628;2023-03-14T13:18:14;9.17;;;2.40;;
1258;SDS011;619;51.472;6.628;2023-03-14T13:23:53;10.30;;;2.93;;
1258;SDS011;619;51.472;6.628;2023-03-14T13:26:20;12.90;;;2.47;;
1258;SDS011;619;51.472;6.628;2023-03-14T13:28:48;9.80;;;2.60;;
1258;SDS011;619;51.472;6.628;2023-03-14T13:31:20;8.30;;;3.07;;
1258;SDS011;619;51.472;6.628;2023-03-14T13:33:55;8.63;;;3.37;;
1258;SDS011;619;51.472;6.628;2023-03-14T13:36:22;10.30;;;3.53;;
1258;SDS011;619;51.472;6.628;2023-03-14T13:38:54;13.33;;;3.43;;
1258;SDS011;619;51.472;6.628;2023-03-14T13:41:22;11.50;;;3.20;;
1258;SDS011;619;51.472;6.628;2023-03-14T13:43:49;9.67;;;3.67;;
1258;SDS011;619;51.472;6.628;2023-03-14T13:46:22;9.77;;;3.10;;
1258;SDS011;619;51.472;6.628;2023-03-14T13:48:55;16.10;;;2.77;;
1258;SDS011;619;51.472;6.628;2023-03-14T13:51:21;9.10;;;2.60;;
1258;SDS011;619;51.472;6.628;2023-03-14T13:53:50;12.13;;;2.37;;
1258;SDS011;619;51.472;6.628;2023-03-14T13:56:18;7.97;;;2.10;;
1258;SDS011;619;51.472;6.628;2023-03-14T13:58:44;8.30;;;1.80;;
1258;SDS011;619;51.472;6.628;2023-03-14T14:03:37;8.03;;;1.73;;
1258;SDS011;619;51.472;6.628;2023-03-14T14:06:05;8.03;;;1.73;;
1258;SDS011;619;51.472;6.628;2023-03-14T14:08:39;5.33;;;1.83;;
1258;SDS011;619;51.472;6.628;2023-03-14T14:11:08;4.13;;;1.87;;
1258;SDS011;619;51.472;6.628;2023-03-14T14:13:40;4.83;;;1.60;;
1258;SDS011;619;51.472;6.628;2023-03-14T14:16:06;8.37;;;2.00;;
1258;SDS011;619;51.472;6.628;2023-03-14T14:18:34;5.10;;;1.77;;
1258;SDS011;619;51.472;6.628;2023-03-14T14:21:01;5.90;;;2.27;;
1258;SDS011;619;51.472;6.628;2023-03-14T14:23:28;8.27;;;1.93;;
1258;SDS011;619;51.472;6.628;2023-03-14T14:25:56;5.07;;;1.80;;
1258;SDS011;619;51.472;6.628;2023-03-14T14:28:29;4.17;;;1.80;;
1258;SDS011;619;51.472;6.628;2023-03-14T14:31:03;3.37;;;1.43;;
1258;SDS011;619;51.472;6.628;2023-03-14T14:33:30;4.23;;;1.63;;
1258;SDS011;619;51.472;6.628;2023-03-14T14:36:03;3.93;;;1.20;;
1258;SDS011;619;51.472;6.628;2023-03-14T14:38:29;7.53;;;1.70;;
1258;SDS011;619;51.472;6.628;2023-03-14T14:40:58;3.90;;;1.50;;
1258;SDS011;619;51.472;6.628;2023-03-14T14:43:28;4.83;;;1.77;;
1258;SDS011;619;51.472;6.628;2023-03-14T14:45:56;8.40;;;1.80;;
1258;SDS011;619;51.472;6.628;2023-03-14T14:48:25;6.47;;;2.33;;
1258;SDS011;619;51.472;6.628;2023-03-14T14:53:36;5.20;;;2.27;;
1258;SDS011;619;51.472;6.628;2023-03-14T14:56:18;5.07;;;1.50;;
1258;SDS011;619;51.472;6.628;2023-03-14T14:58:47;3.23;;;1.80;;
1258;SDS011;619;51.472;6.628;2023-03-14T15:01:14;7.13;;;2.17;;
1258;SDS011;619;51.472;6.628;2023-03-14T15:03:44;11.27;;;2.73;;
1258;SDS011;619;51.472;6.628;2023-03-14T15:06:11;9.87;;;2.17;;
1258;SDS011;619;51.472;6.628;2023-03-14T15:08:38;10.30;;;2.23;;
1258;SDS011;619;51.472;6.628;2023-03-14T15:11:08;11.30;;;1.70;;
1258;SDS011;619;51.472;6.628;2023-03-14T15:13:35;5.17;;;1.63;;
1258;SDS011;619;51.472;6.628;2023-03-14T15:16:01;11.23;;;3.47;;
1258;SDS011;619;51.472;6.628;2023-03-14T15:18:29;3.30;;;1.30;;
1258;SDS011;619;51.472;6.628;2023-03-14T15:20:55;4.33;;;1.73;;
1258;SDS011;619;51.472;6.628;2023-03-14T15:23:21;5.87;;;1.90;;
1258;SDS011;619;51.472;6.628;2023-03-14T15:25:47;7.63;;;1.87;;
1258;SDS011;619;51.472;6.628;2023-03-14T15:28:18;6.43;;;2.30;;
1258;SDS011;619;51.472;6.628;2023-03-14T15:30:51;9.13;;;2.17;;
1258;SDS011;619;51.472;6.628;2023-03-14T15:33:22;4.13;;;1.53;;
1258;SDS011;619;51.472;6.628;2023-03-14T15:35:49;5.07;;;1.53;;
1258;SDS011;619;51.472;6.628;2023-03-14T15:38:16;5.70;;;1.67;;
1258;SDS011;619;51.472;6.628;2023-03-14T15:40:46;4.50;;;1.80;;
1258;SDS011;619;51.472;6.628;2023-03-14T15:43:12;6.60;;;1.63;;
1258;SDS011;619;51.472;6.628;2023-03-14T15:45:43;3.37;;;1.17;;
1258;SDS011;619;51.472;6.628;2023-03-14T15:48:14;5.57;;;1.90;;
1258;SDS011;619;51.472;6.628;2023-03-14T15:50:43;3.57;;;1.17;;
1258;SDS011;619;51.472;6.628;2023-03-14T15:53:09;5.67;;;1.87;;
1258;SDS011;619;51.472;6.628;2023-03-14T15:55:35;6.13;;;1.90;;
1258;SDS011;619;51.472;6.628;2023-03-14T15:58:01;10.43;;;2.80;;
1258;SDS011;619;51.472;6.628;2023-03-14T16:00:30;6.23;;;1.90;;
1258;SDS011;619;51.472;6.628;2023-03-14T16:02:56;8.50;;;2.67;;
1258;SDS011;619;51.472;6.628;2023-03-14T16:05:22;4.43;;;1.87;;
1258;SDS011;619;51.472;6.628;2023-03-14T16:07:51;4.83;;;1.63;;
1258;SDS011;619;51.472;6.628;2023-03-14T16:10:19;5.90;;;1.30;;
1258;SDS011;619;51.472;6.628;2023-03-14T16:12:45;8.87;;;1.47;;
1258;SDS011;619;51.472;6.628;2023-03-14T16:15:11;4.60;;;1.47;;
1258;SDS011;619;51.472;6.628;2023-03-14T16:17:37;3.13;;;1.40;;
1258;SDS011;619;51.472;6.628;2023-03-14T16:20:08;5.60;;;1.30;;
1258;SDS011;619;51.472;6.628;2023-03-14T16:22:34;6.53;;;2.33;;
1258;SDS011;619;51.472;6.628;2023-03-14T16:25:04;3.00;;;1.70;;
1258;SDS011;619;51.472;6.628;2023-03-14T16:27:32;2.97;;;1.20;;
1258;SDS011;619;51.472;6.628;2023-03-14T16:30:01;5.00;;;1.37;;
1258;SDS011;619;51.472;6.628;2023-03-14T16:32:27;3.13;;;1.30;;
1258;SDS011;619;51.472;6.628;2023-03-14T16:34:53;3.70;;;1.30;;
1258;SDS011;619;51.472;6.628;2023-03-14T16:37:19;4.90;;;1.40;;
1258;SDS011;619;51.472;6.628;2023-03-14T16:39:48;5.57;;;1.40;;
1258;SDS011;619;51.472;6.628;2023-03-14T16:42:15;3.17;;;1.37;;
1258;SDS011;619;51.472;6.628;2023-03-14T16:44:43;6.90;;;1.37;;
1258;SDS011;619;51.472;6.628;2023-03-14T16:47:09;7.00;;;1.73;;
1258;SDS011;619;51.472;6.628;2023-03-14T16:49:38;4.07;;;1.63;;
1258;SDS011;619;51.472;6.628;2023-03-14T16:52:06;3.67;;;1.70;;
1258;SDS011;619;51.472;6.628;2023-03-14T16:54:32;6.77;;;2.10;;